Time,TemperatureF,DewpointF,PressureIn,WindDirection,WindDirectionDegrees,WindSpeedMPH,WindSpeedGustMPH,Humidity,HourlyPrecipIn,Conditions,Clouds,dailyrainin,SolarRadiationWatts/m^2,SoftwareType,DateUTC
2013-06-10 00:04:00,78.1,68.7,29.96,SE,135,0.0,0.2,73,0.00,RA,,0.00,240.0,WeatherDisplay:10.37,2013-06-10 05:04:00,
2013-06-10 00:09:00,78.1,68.7,29.96,SE,135,0.0,0.2,73,0.00,RA,,0.00,240.0,WeatherDisplay:10.37,2013-06-10 05:09:00,
2013-06-10 00:14:00,77.7,68.4,29.97,SSE,158,0.0,0.6,73,0.00,CLR,,0.00,240.0,WeatherDisplay:10.37,2013-06-10 05:14:00,
2013-06-10 00:20:00,77.5,68.6,29.97,SSE,158,1.2,1.2,74,0.00,CLR,,0.00,0.0,WeatherDisplay:10.37,2013-06-10 05:20:00,
2013-06-10 00:25:00,77.5,68.6,29.97,SE,135,1.2,1.2,74,0.00,CLR,,0.00,0.0,WeatherDisplay:10.37,2013-06-10 05:25:00,
2013-06-10 00:30:00,77.5,68.6,29.97,South,180,1.2,1.2,74,0.00,CLR,,0.00,250.0,WeatherDisplay:10.37,2013-06-10 05:30:00,
2013-06-10 00:35:00,77.5,69.0,29.97,SSE,158,0.0,0.8,75,0.00,CLR,,0.00,260.0,WeatherDisplay:10.37,2013-06-10 05:35:00,
2013-06-10 00:40:00,77.4,68.4,29.97,SSE,158,1.2,1.2,74,0.00,CLR,,0.00,250.0,WeatherDisplay:10.37,2013-06-10 05:40:00,
2013-06-10 00:45:00,77.2,68.6,29.97,SSE,158,0.0,0.6,75,0.00,CLR,,0.00,240.0,WeatherDisplay:10.37,2013-06-10 05:45:00,
2013-06-10 00:50:00,77.2,68.6,29.97,SSE,158,1.2,1.2,75,0.00,CLR,,0.00,240.0,WeatherDisplay:10.37,2013-06-10 05:50:00,
2013-06-10 00:56:00,77.2,68.6,29.97,SSE,158,1.2,1.2,75,0.00,CLR,,0.00,230.0,WeatherDisplay:10.37,2013-06-10 05:56:00,
2013-06-10 01:01:00,77.0,68.5,29.97,SSE,158,0.0,0.5,75,0.00,CLR,,0.00,0.0,WeatherDisplay:10.37,2013-06-10 06:01:00,
2013-06-10 01:06:00,76.8,68.3,29.97,SSE,158,1.2,1.2,75,0.00,CLR,,0.00,240.0,WeatherDisplay:10.37,2013-06-10 06:06:00,
2013-06-10 01:11:00,76.6,68.1,29.97,SSE,158,1.5,1.5,75,0.00,CLR,,0.00,230.0,WeatherDisplay:10.37,2013-06-10 06:11:00,
2013-06-10 01:16:00,76.8,68.7,29.97,SSE,158,1.2,1.2,76,0.00,CLR,,0.00,240.0,WeatherDisplay:10.37,2013-06-10 06:16:00,
2013-06-10 01:22:00,76.5,68.3,29.97,South,180,0.0,0.3,76,0.00,CLR,,0.00,0.0,WeatherDisplay:10.37,2013-06-10 06:22:00,
2013-06-10 01:27:00,76.5,68.3,29.97,SSE,158,0.0,0.1,76,0.00,CLR,,0.00,250.0,WeatherDisplay:10.37,2013-06-10 06:27:00,
2013-06-10 01:32:00,76.1,68.0,29.97,SSE,158,1.2,0.0,76,0.00,CLR,,0.00,240.0,WeatherDisplay:10.37,2013-06-10 06:32:00,
2013-06-10 01:37:00,76.1,68.4,29.97,South,180,0.0,0.1,77,0.00,CLR,,0.00,230.0,WeatherDisplay:10.37,2013-06-10 06:37:00,
2013-06-10 01:42:00,75.7,68.0,29.97,SW,225,2.3,2.3,77,0.00,CLR,,0.00,230.0,WeatherDisplay:10.37,2013-06-10 06:42:00,
2013-06-10 01:47:00,75.7,68.0,29.97,South,180,2.3,2.3,77,0.00,CLR,,0.00,250.0,WeatherDisplay:10.37,2013-06-10 06:47:00,
2013-06-10 01:52:00,75.7,68.0,29.98,SE,135,2.3,2.3,77,0.00,CLR,,0.00,250.0,WeatherDisplay:10.37,2013-06-10 06:52:00,
2013-06-10 01:58:00,75.7,68.0,29.98,SSE,158,1.2,1.2,77,0.00,CLR,,0.00,260.0,WeatherDisplay:10.37,2013-06-10 06:58:00,
2013-06-10 02:03:00,75.7,68.0,29.98,SSE,158,0.0,0.5,77,0.00,CLR,,0.00,260.0,WeatherDisplay:10.37,2013-06-10 07:03:00,
2013-06-10 02:08:00,75.4,67.7,29.98,SE,135,0.0,0.3,77,0.00,CLR,,0.00,230.0,WeatherDisplay:10.37,2013-06-10 07:08:00,
2013-06-10 02:13:00,75.4,67.7,29.97,SSE,158,0.0,0.1,77,0.00,CLR,,0.00,230.0,WeatherDisplay:10.37,2013-06-10 07:13:00,
2013-06-10 02:18:00,75.2,67.9,29.97,SSE,158,1.2,1.2,78,0.00,CLR,,0.00,230.0,WeatherDisplay:10.37,2013-06-10 07:18:00,
2013-06-10 02:24:00,75.2,67.9,29.97,South,180,0.0,0.2,78,0.00,CLR,,0.00,220.0,WeatherDisplay:10.37,2013-06-10 07:24:00,
2013-06-10 02:29:00,75.0,67.7,29.97,SE,135,1.2,1.2,78,0.00,CLR,,0.00,220.0,WeatherDisplay:10.37,2013-06-10 07:29:00,
2013-06-10 02:34:00,74.8,67.5,29.97,SSE,158,2.3,2.3,78,0.00,CLR,,0.00,220.0,WeatherDisplay:10.37,2013-06-10 07:34:00,
2013-06-10 02:40:00,75.0,67.7,29.97,South,180,1.2,1.2,78,0.00,CLR,,0.00,240.0,WeatherDisplay:10.37,2013-06-10 07:40:00,
2013-06-10 02:45:00,74.7,67.7,29.97,ESE,112,0.0,0.6,79,0.00,CLR,,0.00,250.0,WeatherDisplay:10.37,2013-06-10 07:45:00,
2013-06-10 02:50:00,74.5,67.5,29.97,South,180,0.0,0.2,79,0.00,CLR,,0.00,250.0,WeatherDisplay:10.37,2013-06-10 07:50:00,
2013-06-10 02:55:00,74.5,67.5,29.97,SSE,158,0.0,0.3,79,0.00,CLR,,0.00,250.0,WeatherDisplay:10.37,2013-06-10 07:55:00,
2013-06-10 03:00:00,74.5,67.5,29.97,SSE,158,2.3,2.3,79,0.00,CLR,,0.00,250.0,WeatherDisplay:10.37,2013-06-10 08:00:00,
2013-06-10 03:05:00,74.5,67.5,29.97,South,180,2.3,2.3,79,0.00,CLR,,0.00,250.0,WeatherDisplay:10.37,2013-06-10 08:05:00,
2013-06-10 03:11:00,74.5,67.5,29.97,South,180,2.3,2.3,79,0.00,CLR,,0.00,250.0,WeatherDisplay:10.37,2013-06-10 08:11:00,
2013-06-10 03:16:00,74.3,67.4,29.97,SSE,158,2.3,2.3,79,0.00,CLR,,0.00,230.0,WeatherDisplay:10.37,2013-06-10 08:16:00,
2013-06-10 03:21:00,74.3,67.4,29.97,South,180,2.3,2.3,79,0.00,CLR,,0.00,230.0,WeatherDisplay:10.37,2013-06-10 08:21:00,
2013-06-10 03:26:00,74.3,67.4,29.97,SSE,158,2.3,2.3,79,0.00,CLR,,0.00,230.0,WeatherDisplay:10.37,2013-06-10 08:26:00,
2013-06-10 03:31:00,74.1,67.2,29.97,South,180,0.0,0.6,79,0.00,CLR,,0.00,240.0,WeatherDisplay:10.37,2013-06-10 08:31:00,
2013-06-10 03:36:00,74.3,67.7,29.97,South,180,2.3,2.3,80,0.00,CLR,,0.00,260.0,WeatherDisplay:10.37,2013-06-10 08:36:00,
2013-06-10 03:42:00,74.3,67.7,29.97,SSE,158,1.3,1.3,80,0.00,CLR,,0.00,240.0,WeatherDisplay:10.37,2013-06-10 08:42:00,
2013-06-10 03:47:00,74.1,67.6,29.97,South,180,0.0,1.2,80,0.00,CLR,,0.00,230.0,WeatherDisplay:10.37,2013-06-10 08:47:00,
2013-06-10 03:52:00,73.9,67.4,29.97,South,180,0.0,0.3,80,0.00,CLR,,0.00,250.0,WeatherDisplay:10.37,2013-06-10 08:52:00,
2013-06-10 03:57:00,73.8,67.2,29.97,SSE,158,0.0,0.0,80,0.00,CLR,,0.00,280.0,WeatherDisplay:10.37,2013-06-10 08:57:00,
2013-06-10 04:03:00,73.9,67.7,29.97,South,180,0.0,0.1,81,0.00,CLR,,0.00,280.0,WeatherDisplay:10.37,2013-06-10 09:03:00,
2013-06-10 04:08:00,73.8,67.6,29.97,South,180,1.2,1.2,81,0.00,CLR,,0.00,290.0,WeatherDisplay:10.37,2013-06-10 09:08:00,
2013-06-10 04:13:00,73.6,67.4,29.97,SSE,158,2.3,2.3,81,0.00,CLR,,0.00,290.0,WeatherDisplay:10.37,2013-06-10 09:13:00,
2013-06-10 04:18:00,73.6,67.4,29.97,SSE,158,0.0,0.5,81,0.00,CLR,,0.00,340.0,WeatherDisplay:10.37,2013-06-10 09:18:00,
2013-06-10 04:23:00,73.4,66.9,29.97,South,180,0.0,0.2,80,0.00,CLR,,0.00,340.0,WeatherDisplay:10.37,2013-06-10 09:23:00,
2013-06-10 04:28:00,73.6,67.4,29.97,SSE,158,0.0,0.1,81,0.00,CLR,,0.00,330.0,WeatherDisplay:10.37,2013-06-10 09:28:00,
2013-06-10 04:34:00,73.4,67.2,29.98,South,180,2.3,2.3,81,0.00,CLR,,0.00,0.0,WeatherDisplay:10.37,2013-06-10 09:34:00,
2013-06-10 04:39:00,73.2,67.0,29.98,South,180,1.2,1.2,81,0.00,CLR,,0.00,0.0,WeatherDisplay:10.37,2013-06-10 09:39:00,
2013-06-10 04:44:00,73.4,67.2,29.98,SW,225,2.3,2.3,81,0.00,CLR,,0.00,320.0,WeatherDisplay:10.37,2013-06-10 09:44:00,
2013-06-10 04:49:00,73.2,67.0,29.98,SSE,158,2.3,2.3,81,0.00,CLR,,0.00,310.0,WeatherDisplay:10.37,2013-06-10 09:49:00,
2013-06-10 04:54:00,73.2,67.0,29.97,SSE,158,1.2,1.2,81,0.00,CLR,,0.00,310.0,WeatherDisplay:10.37,2013-06-10 09:54:00,
2013-06-10 04:59:00,73.0,66.9,29.97,ENE,68,0.0,0.7,81,0.00,CLR,,0.00,320.0,WeatherDisplay:10.37,2013-06-10 09:59:00,
2013-06-10 05:04:00,73.2,67.0,29.97,SW,225,0.0,0.2,81,0.00,CLR,,0.00,300.0,WeatherDisplay:10.37,2013-06-10 10:04:00,
2013-06-10 05:10:00,73.2,67.0,29.96,SSE,158,1.2,1.2,81,0.00,CLR,,0.00,220.0,WeatherDisplay:10.37,2013-06-10 10:10:00,
2013-06-10 05:15:00,73.0,66.9,29.96,SSE,158,1.6,1.6,81,0.00,CLR,,0.00,180.0,WeatherDisplay:10.37,2013-06-10 10:15:00,
2013-06-10 05:20:00,73.0,67.2,29.96,SSE,158,2.3,2.3,82,0.00,CLR,,0.00,170.0,WeatherDisplay:10.37,2013-06-10 10:20:00,
2013-06-10 05:25:00,73.0,67.2,29.96,SSE,158,2.3,2.3,82,0.00,CLR,,0.00,160.0,WeatherDisplay:10.37,2013-06-10 10:25:00,
2013-06-10 05:30:00,72.9,67.0,29.97,SSE,158,2.3,2.3,82,0.00,CLR,,0.00,150.0,WeatherDisplay:10.37,2013-06-10 10:30:00,
2013-06-10 05:35:00,72.9,67.0,29.97,SSE,158,2.3,2.3,82,0.00,CLR,,0.00,140.0,WeatherDisplay:10.37,2013-06-10 10:35:00,
2013-06-10 05:41:00,72.9,67.0,29.97,SSE,158,1.2,1.2,82,0.00,CLR,,0.00,0.0,WeatherDisplay:10.37,2013-06-10 10:41:00,
2013-06-10 05:46:00,72.7,66.9,29.97,SE,135,2.3,2.3,82,0.00,CLR,,0.00,120.0,WeatherDisplay:10.37,2013-06-10 10:46:00,
2013-06-10 05:51:00,72.7,66.9,29.97,SE,135,2.3,2.3,82,0.00,CLR,,0.00,110.0,WeatherDisplay:10.37,2013-06-10 10:51:00,
2013-06-10 05:57:00,72.9,67.0,29.97,SSE,158,2.3,2.3,82,0.00,CLR,,0.00,110.0,WeatherDisplay:10.37,2013-06-10 10:57:00,
2013-06-10 06:02:00,72.7,66.9,29.97,ESE,112,0.0,0.9,82,0.00,OVC,,0.00,110.0,WeatherDisplay:10.37,2013-06-10 11:02:00,
2013-06-10 06:07:00,72.7,66.9,29.97,ESE,112,0.0,0.9,82,0.00,OVC,,0.00,110.0,WeatherDisplay:10.37,2013-06-10 11:07:00,
2013-06-10 06:12:00,72.7,66.9,29.99,SSE,158,1.2,1.2,82,0.00,OVC,,0.00,110.0,WeatherDisplay:10.37,2013-06-10 11:12:00,
2013-06-10 06:17:00,72.3,66.5,29.99,SSW,202,1.2,1.2,82,0.00,OVC,,0.00,110.0,WeatherDisplay:10.37,2013-06-10 11:17:00,
2013-06-10 06:22:00,72.3,66.5,29.99,SE,135,2.3,2.3,82,0.00,OVC,,0.00,110.0,WeatherDisplay:10.37,2013-06-10 11:22:00,
2013-06-10 06:27:00,72.3,66.9,29.99,South,180,1.2,1.3,83,0.00,OVC,,0.00,80.0,WeatherDisplay:10.37,2013-06-10 11:27:00,
2013-06-10 06:33:00,72.3,66.9,29.99,South,180,1.3,1.3,83,0.00,OVC,,0.00,80.0,WeatherDisplay:10.37,2013-06-10 11:33:00,
2013-06-10 06:38:00,72.3,66.9,29.99,ESE,112,2.3,2.3,83,0.00,OVC,,0.00,90.0,WeatherDisplay:10.37,2013-06-10 11:38:00,
2013-06-10 06:43:00,72.3,66.9,29.99,South,180,0.0,0.3,83,0.00,OVC,,0.00,110.0,WeatherDisplay:10.37,2013-06-10 11:43:00,
2013-06-10 06:48:00,72.3,66.9,29.99,South,180,1.2,1.2,83,0.00,OVC,,0.00,130.0,WeatherDisplay:10.37,2013-06-10 11:48:00,
2013-06-10 06:53:00,72.3,66.9,29.99,SE,135,1.0,1.0,83,0.00,OVC,,0.00,190.0,WeatherDisplay:10.37,2013-06-10 11:53:00,
2013-06-10 06:58:00,72.3,66.9,29.99,WSW,248,1.2,1.2,83,0.00,OVC,,0.00,220.0,WeatherDisplay:10.37,2013-06-10 11:58:00,
2013-06-10 07:04:00,72.1,66.7,29.99,South,180,0.0,0.0,83,0.00,OVC,,0.00,230.0,WeatherDisplay:10.37,2013-06-10 12:04:00,
2013-06-10 07:09:00,72.3,66.9,29.99,SSE,158,1.2,0.0,83,0.00,OVC,,0.00,280.0,WeatherDisplay:10.37,2013-06-10 12:09:00,
2013-06-10 07:14:00,72.5,67.4,29.98,South,180,0.0,0.1,84,0.00,OVC,,0.00,350.0,WeatherDisplay:10.37,2013-06-10 12:14:00,
2013-06-10 07:19:00,72.3,67.2,29.98,SSW,202,1.2,1.2,84,0.00,OVC,,0.00,390.0,WeatherDisplay:10.37,2013-06-10 12:19:00,
2013-06-10 07:24:00,72.5,67.4,29.98,WSW,248,0.0,0.2,84,0.00,OVC,,0.00,390.0,WeatherDisplay:10.37,2013-06-10 12:24:00,
2013-06-10 07:29:00,72.9,67.7,29.98,South,180,0.0,0.3,84,0.00,OVC,,0.00,390.0,WeatherDisplay:10.37,2013-06-10 12:29:00,
2013-06-10 07:34:00,72.9,67.7,29.99,SW,225,0.0,0.2,84,0.00,OVC,,0.00,290.0,WeatherDisplay:10.37,2013-06-10 12:34:00,
2013-06-10 07:39:00,73.2,68.1,29.99,SSW,202,0.0,0.1,84,0.00,OVC,,0.00,170.0,WeatherDisplay:10.37,2013-06-10 12:39:00,
2013-06-10 07:44:00,73.2,68.1,29.99,SSE,158,0.0,0.1,84,0.00,OVC,,0.00,60.0,WeatherDisplay:10.37,2013-06-10 12:44:00,
2013-06-10 07:49:00,73.4,68.3,29.99,West,270,0.0,0.1,84,0.00,OVC,,0.00,20.0,WeatherDisplay:10.37,2013-06-10 12:49:00,
2013-06-10 07:55:00,73.8,68.6,29.99,ENE,68,1.2,0.0,84,0.00,OVC,,0.00,100.0,WeatherDisplay:10.37,2013-06-10 12:55:00,
2013-06-10 08:00:00,74.1,69.0,29.99,South,180,1.2,1.2,84,0.00,OVC,,0.00,80.0,WeatherDisplay:10.37,2013-06-10 13:00:00,
2013-06-10 08:05:00,74.5,69.3,29.99,SW,225,1.2,1.2,84,0.00,OVC,,0.00,50.0,WeatherDisplay:10.37,2013-06-10 13:05:00,
2013-06-10 08:10:00,75.0,69.9,30.00,ENE,68,1.2,1.2,84,0.00,OVC,,0.00,30.0,WeatherDisplay:10.37,2013-06-10 13:10:00,
2013-06-10 08:15:00,75.6,70.0,30.00,South,180,0.0,0.3,83,0.00,OVC,,0.00,30.0,WeatherDisplay:10.37,2013-06-10 13:15:00,
2013-06-10 08:20:00,75.7,70.2,30.00,SW,225,2.3,2.3,83,0.00,OVC,,0.00,20.0,WeatherDisplay:10.37,2013-06-10 13:20:00,
2013-06-10 08:25:00,76.1,70.2,30.00,NW,315,0.0,0.5,82,0.00,OVC,,0.00,20.0,WeatherDisplay:10.37,2013-06-10 13:25:00,
2013-06-10 08:30:00,76.5,70.9,30.00,WNW,292,1.5,1.5,83,0.00,OVC,,0.00,20.0,WeatherDisplay:10.37,2013-06-10 13:30:00,
2013-06-10 08:36:00,76.6,70.7,30.00,WSW,248,1.2,1.2,82,0.00,OVC,,0.00,20.0,WeatherDisplay:10.37,2013-06-10 13:36:00,
2013-06-10 08:41:00,76.6,70.7,30.00,WNW,292,1.2,1.2,82,0.00,OVC,,0.00,20.0,WeatherDisplay:10.37,2013-06-10 13:41:00,
2013-06-10 08:46:00,77.0,70.7,30.00,SW,225,1.2,1.2,81,0.00,OVC,,0.00,20.0,WeatherDisplay:10.37,2013-06-10 13:46:00,
2013-06-10 08:51:00,77.4,71.1,30.00,WNW,292,0.0,0.3,81,0.00,OVC,,0.00,30.0,WeatherDisplay:10.37,2013-06-10 13:51:00,
2013-06-10 08:56:00,77.5,70.9,30.00,WSW,248,2.3,2.3,80,0.00,OVC,,0.00,30.0,WeatherDisplay:10.37,2013-06-10 13:56:00,
2013-06-10 09:01:00,77.9,71.2,30.00,West,270,1.2,1.2,80,0.00,OVC,,0.00,30.0,WeatherDisplay:10.37,2013-06-10 14:01:00,
2013-06-10 09:07:00,78.3,71.2,30.00,WSW,248,0.0,0.3,79,0.00,OVC,,0.00,30.0,WeatherDisplay:10.37,2013-06-10 14:07:00,
2013-06-10 09:12:00,78.6,71.6,30.00,SW,225,2.3,2.3,79,0.00,OVC,,0.00,30.0,WeatherDisplay:10.37,2013-06-10 14:12:00,
2013-06-10 09:18:00,78.8,71.0,30.00,West,270,1.5,1.5,77,0.00,OVC,,0.00,30.0,WeatherDisplay:10.37,2013-06-10 14:18:00,
2013-06-10 09:23:00,79.3,71.5,30.00,WSW,248,1.2,1.2,77,0.00,OVC,,0.00,30.0,WeatherDisplay:10.37,2013-06-10 14:23:00,
2013-06-10 09:28:00,79.7,71.5,30.00,SE,135,1.2,1.2,76,0.00,OVC,,0.00,40.0,WeatherDisplay:10.37,2013-06-10 14:28:00,
2013-06-10 09:33:00,79.7,71.5,30.00,WSW,248,2.3,2.3,76,0.00,OVC,,0.00,30.0,WeatherDisplay:10.37,2013-06-10 14:33:00,
2013-06-10 09:39:00,79.9,71.6,30.00,WNW,292,1.2,1.2,76,0.00,OVC,,0.00,30.0,WeatherDisplay:10.37,2013-06-10 14:39:00,
2013-06-10 09:44:00,80.4,71.8,30.00,SSE,158,1.3,1.3,75,0.00,OVC,,0.00,30.0,WeatherDisplay:10.37,2013-06-10 14:44:00,
2013-06-10 09:49:00,80.8,72.1,30.01,SW,225,2.6,2.6,75,0.00,OVC,,0.00,30.0,WeatherDisplay:10.37,2013-06-10 14:49:00,
2013-06-10 09:54:00,81.0,72.7,30.01,NW,315,2.3,2.3,76,0.00,OVC,,0.00,30.0,WeatherDisplay:10.37,2013-06-10 14:54:00,
2013-06-10 09:59:00,81.5,72.4,30.01,SW,225,2.3,2.3,74,0.00,OVC,,0.00,40.0,WeatherDisplay:10.37,2013-06-10 14:59:00,
2013-06-10 10:04:00,81.7,72.6,30.01,SSE,158,2.3,2.3,74,0.00,OVC,,0.00,40.0,WeatherDisplay:10.37,2013-06-10 15:04:00,
2013-06-10 10:09:00,81.9,72.8,30.01,West,270,1.2,1.2,74,0.00,OVC,,0.00,40.0,WeatherDisplay:10.37,2013-06-10 15:09:00,
2013-06-10 10:14:00,82.2,72.7,30.01,WSW,248,2.3,2.3,73,0.00,OVC,,0.00,40.0,WeatherDisplay:10.37,2013-06-10 15:14:00,
2013-06-10 10:20:00,82.4,72.5,30.01,SW,225,2.3,2.3,72,0.00,OVC,,0.00,40.0,WeatherDisplay:10.37,2013-06-10 15:20:00,
2013-06-10 10:25:00,82.8,72.0,30.01,SW,225,0.0,1.2,70,0.00,OVC,,0.00,40.0,WeatherDisplay:10.37,2013-06-10 15:25:00,
2013-06-10 10:30:00,83.1,71.9,30.02,West,270,2.3,2.3,69,0.00,OVC,,0.00,40.0,WeatherDisplay:10.37,2013-06-10 15:30:00,
2013-06-10 10:35:00,83.3,71.6,30.02,South,180,2.3,2.3,68,0.00,OVC,,0.00,30.0,WeatherDisplay:10.37,2013-06-10 15:35:00,
2013-06-10 10:41:00,83.7,71.5,30.02,West,270,2.3,2.3,67,0.00,OVC,,0.00,30.0,WeatherDisplay:10.37,2013-06-10 15:41:00,
2013-06-10 10:46:00,83.8,71.3,30.02,WSW,248,3.5,3.5,66,0.00,OVC,,0.00,30.0,WeatherDisplay:10.37,2013-06-10 15:46:00,
2013-06-10 10:51:00,84.4,71.8,30.00,West,270,1.2,1.6,66,0.00,OVC,,0.00,30.0,WeatherDisplay:10.37,2013-06-10 15:51:00,
2013-06-10 10:56:00,84.4,71.3,30.00,NW,315,2.3,2.3,65,0.00,OVC,,0.00,30.0,WeatherDisplay:10.37,2013-06-10 15:56:00,
2013-06-10 11:01:00,84.4,71.3,30.00,South,180,2.4,2.4,65,0.00,OVC,,0.00,30.0,WeatherDisplay:10.37,2013-06-10 16:01:00,
2013-06-10 11:06:00,84.7,72.1,30.00,SE,135,1.2,1.2,66,0.00,OVC,,0.00,30.0,WeatherDisplay:10.37,2013-06-10 16:06:00,
2013-06-10 11:12:00,84.9,70.9,30.00,NW,315,3.5,3.5,63,0.00,OVC,,0.00,30.0,WeatherDisplay:10.37,2013-06-10 16:12:00,
2013-06-10 11:17:00,85.5,71.0,30.00,WSW,248,2.3,2.3,62,0.00,OVC,,0.00,30.0,WeatherDisplay:10.37,2013-06-10 16:17:00,
2013-06-10 11:22:00,85.5,71.0,30.00,WSW,248,2.3,2.3,62,0.00,CLR,,0.00,30.0,WeatherDisplay:10.37,2013-06-10 16:22:00,
2013-06-10 11:27:00,85.8,70.3,30.00,NW,315,2.3,2.3,60,0.00,CLR,,0.00,20.0,WeatherDisplay:10.37,2013-06-10 16:27:00,
2013-06-10 11:32:00,86.2,71.2,30.01,SW,225,2.3,2.3,61,0.00,SCT,,0.00,20.0,WeatherDisplay:10.37,2013-06-10 16:32:00,
2013-06-10 11:38:00,86.2,70.7,30.01,NW,315,2.3,2.3,60,0.00,BKN,,0.00,20.0,WeatherDisplay:10.37,2013-06-10 16:38:00,
2013-06-10 11:43:00,86.4,70.8,30.01,NNW,338,1.3,1.3,60,0.00,OVC,,0.00,20.0,WeatherDisplay:10.37,2013-06-10 16:43:00,
2013-06-10 11:48:00,86.5,70.0,30.01,West,270,1.2,1.2,58,0.00,OVC,,0.00,20.0,WeatherDisplay:10.37,2013-06-10 16:48:00,
2013-06-10 11:53:00,86.7,70.7,30.00,SW,225,0.0,0.8,59,0.00,OVC,,0.00,20.0,WeatherDisplay:10.37,2013-06-10 16:53:00,
2013-06-10 11:58:00,86.9,70.3,30.00,SSW,202,1.2,1.2,58,0.00,OVC,,0.00,20.0,WeatherDisplay:10.37,2013-06-10 16:58:00,
2013-06-10 12:03:00,87.3,70.7,30.00,NE,45,1.5,1.5,58,0.00,OVC,,0.00,20.0,WeatherDisplay:10.37,2013-06-10 17:03:00,
2013-06-10 12:09:00,87.3,70.7,30.00,NE,45,1.2,1.2,58,0.00,OVC,,0.00,20.0,WeatherDisplay:10.37,2013-06-10 17:09:00,
2013-06-10 12:14:00,87.4,71.3,30.00,South,180,1.2,1.2,59,0.00,OVC,,0.00,20.0,WeatherDisplay:10.37,2013-06-10 17:14:00,
2013-06-10 12:19:00,87.6,70.5,30.00,NW,315,1.3,1.3,57,0.00,OVC,,0.00,30.0,WeatherDisplay:10.37,2013-06-10 17:19:00,
2013-06-10 12:24:00,87.8,70.7,30.00,South,180,2.3,2.3,57,0.00,OVC,,0.00,20.0,WeatherDisplay:10.37,2013-06-10 17:24:00,
2013-06-10 12:29:00,88.0,70.8,30.00,WSW,248,1.2,1.2,57,0.00,OVC,,0.00,30.0,WeatherDisplay:10.37,2013-06-10 17:29:00,
2013-06-10 12:34:00,88.2,71.5,30.00,NW,315,1.2,1.2,58,0.00,OVC,,0.00,20.0,WeatherDisplay:10.37,2013-06-10 17:34:00,
2013-06-10 12:40:00,88.3,71.7,30.00,NNE,22,1.2,1.2,58,0.00,OVC,,0.00,10.0,WeatherDisplay:10.37,2013-06-10 17:40:00,
2013-06-10 12:45:00,88.7,71.5,30.00,South,180,1.3,1.3,57,0.00,OVC,,0.00,10.0,WeatherDisplay:10.37,2013-06-10 17:45:00,
2013-06-10 12:50:00,88.7,71.5,29.99,SW,225,1.2,1.2,57,0.00,OVC,,0.00,20.0,WeatherDisplay:10.37,2013-06-10 17:50:00,
2013-06-10 12:55:00,88.9,70.6,29.99,South,180,1.3,1.3,55,0.00,OVC,,0.00,20.0,WeatherDisplay:10.37,2013-06-10 17:55:00,
2013-06-10 13:00:00,89.1,69.7,29.99,South,180,6.9,6.9,53,0.00,OVC,,0.00,20.0,WeatherDisplay:10.37,2013-06-10 18:00:00,
2013-06-10 13:05:00,89.2,70.4,29.99,SW,225,2.3,2.5,54,0.00,OVC,,0.00,20.0,WeatherDisplay:10.37,2013-06-10 18:05:00,
2013-06-10 13:11:00,89.6,70.8,29.99,SE,135,4.9,4.9,54,0.00,OVC,,0.00,20.0,WeatherDisplay:10.37,2013-06-10 18:11:00,
2013-06-10 13:16:00,89.8,69.8,29.99,SW,225,1.4,2.0,52,0.00,OVC,,0.00,20.0,WeatherDisplay:10.37,2013-06-10 18:16:00,
2013-06-10 13:21:00,90.1,69.0,29.99,SSE,158,4.8,4.8,50,0.00,OVC,,0.00,20.0,WeatherDisplay:10.37,2013-06-10 18:21:00,
2013-06-10 13:26:00,90.1,68.4,29.99,SSE,158,3.5,3.5,49,0.00,OVC,,0.00,20.0,WeatherDisplay:10.37,2013-06-10 18:26:00,
2013-06-10 13:32:00,90.1,69.0,29.98,WSW,248,1.2,1.5,50,0.00,OVC,,0.00,20.0,WeatherDisplay:10.37,2013-06-10 18:32:00,
2013-06-10 13:37:00,90.5,68.7,29.98,WSW,248,2.3,2.3,49,0.00,OVC,,0.00,20.0,WeatherDisplay:10.37,2013-06-10 18:37:00,
2013-06-10 13:42:00,90.7,70.1,29.98,WNW,292,3.5,3.5,51,0.00,OVC,,0.00,20.0,WeatherDisplay:10.37,2013-06-10 18:42:00,
2013-06-10 13:47:00,90.9,70.2,29.98,South,180,1.2,1.2,51,0.00,OVC,,0.00,20.0,WeatherDisplay:10.37,2013-06-10 18:47:00,
2013-06-10 13:52:00,91.2,70.6,29.98,South,180,4.6,4.6,51,0.00,OVC,,0.00,20.0,WeatherDisplay:10.37,2013-06-10 18:52:00,
2013-06-10 13:58:00,91.4,70.1,29.98,SW,225,1.2,1.2,50,0.00,OVC,,0.00,20.0,WeatherDisplay:10.37,2013-06-10 18:58:00,
2013-06-10 14:03:00,91.6,69.1,29.98,South,180,1.2,1.4,48,0.00,OVC,,0.00,20.0,WeatherDisplay:10.37,2013-06-10 19:03:00,
2013-06-10 14:08:00,91.6,69.1,29.98,ESE,112,4.6,4.6,48,0.00,OVC,,0.00,20.0,WeatherDisplay:10.37,2013-06-10 19:08:00,
2013-06-10 14:13:00,91.8,68.7,29.98,South,180,1.2,2.0,47,0.00,OVC,,0.00,20.0,WeatherDisplay:10.37,2013-06-10 19:13:00,
2013-06-10 14:18:00,91.9,66.9,29.98,SW,225,2.3,2.3,44,0.00,OVC,,0.00,20.0,WeatherDisplay:10.37,2013-06-10 19:18:00,
2013-06-10 14:23:00,92.1,68.4,29.98,WNW,292,1.2,1.2,46,0.00,OVC,,0.00,20.0,WeatherDisplay:10.37,2013-06-10 19:23:00,
2013-06-10 14:29:00,92.3,67.9,29.98,WNW,292,0.0,0.7,45,0.00,OVC,,0.00,20.0,WeatherDisplay:10.37,2013-06-10 19:29:00,
2013-06-10 14:34:00,92.5,68.0,29.97,SE,135,5.8,5.8,45,0.00,OVC,,0.00,20.0,WeatherDisplay:10.37,2013-06-10 19:34:00,
2013-06-10 14:39:00,92.7,68.2,29.97,WSW,248,0.0,0.5,45,0.00,OVC,,0.00,20.0,WeatherDisplay:10.37,2013-06-10 19:39:00,
2013-06-10 14:44:00,92.7,68.2,29.97,SE,135,3.5,3.5,45,0.00,OVC,,0.00,30.0,WeatherDisplay:10.37,2013-06-10 19:44:00,
2013-06-10 14:49:00,92.8,65.7,29.98,SSW,202,2.3,2.3,41,0.00,OVC,,0.00,20.0,WeatherDisplay:10.37,2013-06-10 19:49:00,
2013-06-10 14:54:00,93.2,65.3,29.98,SW,225,1.2,1.2,40,0.00,OVC,,0.00,20.0,WeatherDisplay:10.37,2013-06-10 19:54:00,
2013-06-10 14:59:00,93.2,66.7,29.98,South,180,5.8,5.8,42,0.00,OVC,,0.00,20.0,WeatherDisplay:10.37,2013-06-10 19:59:00,
2013-06-10 15:05:00,93.2,68.0,29.98,SSE,158,2.3,2.3,44,0.00,OVC,,0.00,20.0,WeatherDisplay:10.37,2013-06-10 20:05:00,
2013-06-10 15:10:00,93.7,66.5,29.97,SW,225,2.6,2.6,41,0.00,OVC,,0.00,20.0,WeatherDisplay:10.37,2013-06-10 20:10:00,
2013-06-10 15:15:00,93.7,67.2,29.97,South,180,0.0,0.9,42,0.00,OVC,,0.00,20.0,WeatherDisplay:10.37,2013-06-10 20:15:00,
2013-06-10 15:20:00,93.6,67.7,29.97,WSW,248,2.3,2.3,43,0.00,OVC,,0.00,20.0,WeatherDisplay:10.37,2013-06-10 20:20:00,
2013-06-10 15:25:00,93.9,65.9,29.97,SSW,202,1.3,1.3,40,0.00,OVC,,0.00,20.0,WeatherDisplay:10.37,2013-06-10 20:25:00,
2013-06-10 15:30:00,94.1,66.1,29.97,WSW,248,1.2,1.2,40,0.00,OVC,,0.00,20.0,WeatherDisplay:10.37,2013-06-10 20:30:00,
2013-06-10 15:35:00,94.1,66.8,29.97,WSW,248,0.0,0.8,41,0.00,OVC,,0.00,20.0,WeatherDisplay:10.37,2013-06-10 20:35:00,
2013-06-10 15:41:00,94.5,66.4,29.97,NNW,338,0.0,0.3,40,0.00,OVC,,0.00,20.0,WeatherDisplay:10.37,2013-06-10 20:41:00,
2013-06-10 15:46:00,94.3,67.0,29.97,West,270,1.2,1.2,41,0.00,OVC,,0.00,10.0,WeatherDisplay:10.37,2013-06-10 20:46:00,
2013-06-10 15:52:00,94.8,65.3,29.97,SSW,202,1.5,1.5,38,0.00,OVC,,0.00,10.0,WeatherDisplay:10.37,2013-06-10 20:52:00,
2013-06-10 15:57:00,94.8,65.3,29.97,SSE,158,1.5,1.5,38,0.00,OVC,,0.00,20.0,WeatherDisplay:10.37,2013-06-10 20:57:00,
2013-06-10 16:02:00,95.0,64.6,29.97,WSW,248,1.2,1.2,37,0.00,OVC,,0.00,10.0,WeatherDisplay:10.37,2013-06-10 21:02:00,
2013-06-10 16:07:00,94.8,64.5,29.97,SW,225,0.0,0.8,37,0.00,OVC,,0.00,10.0,WeatherDisplay:10.37,2013-06-10 21:07:00,
2013-06-10 16:12:00,95.0,65.4,29.96,SSW,202,4.8,4.8,38,0.00,OVC,,0.00,10.0,WeatherDisplay:10.37,2013-06-10 21:12:00,
2013-06-10 16:18:00,95.2,66.3,29.96,ESE,112,6.9,6.9,39,0.00,OVC,,0.00,20.0,WeatherDisplay:10.37,2013-06-10 21:18:00,
2013-06-10 16:23:00,95.0,65.4,29.96,South,180,3.5,3.5,38,0.00,OVC,,0.00,20.0,WeatherDisplay:10.37,2013-06-10 21:23:00,
2013-06-10 16:28:00,95.2,65.6,29.96,ENE,68,2.3,2.5,38,0.00,OVC,,0.00,20.0,WeatherDisplay:10.37,2013-06-10 21:28:00,
2013-06-10 16:33:00,95.4,63.4,29.96,SE,135,3.5,3.5,35,0.00,OVC,,0.00,20.0,WeatherDisplay:10.37,2013-06-10 21:33:00,
2013-06-10 16:39:00,95.4,63.4,29.96,SSE,158,4.6,4.6,35,0.00,OVC,,0.00,30.0,WeatherDisplay:10.37,2013-06-10 21:39:00,
2013-06-10 16:44:00,95.4,65.0,29.96,South,180,4.6,4.6,37,0.00,OVC,,0.00,30.0,WeatherDisplay:10.37,2013-06-10 21:44:00,
2013-06-10 16:49:00,95.4,62.5,29.96,SE,135,6.9,6.9,34,0.00,OVC,,0.00,20.0,WeatherDisplay:10.37,2013-06-10 21:49:00,
2013-06-10 16:54:00,95.4,63.4,29.96,SE,135,2.3,2.3,35,0.00,OVC,,0.00,30.0,WeatherDisplay:10.37,2013-06-10 21:54:00,
2013-06-10 16:59:00,95.4,65.0,29.96,South,180,2.3,2.3,37,0.00,OVC,,0.00,30.0,WeatherDisplay:10.37,2013-06-10 21:59:00,
2013-06-10 17:04:00,95.9,63.8,29.96,NNE,22,4.6,4.6,35,0.00,OVC,,0.00,30.0,WeatherDisplay:10.37,2013-06-10 22:04:00,
2013-06-10 17:09:00,95.9,63.0,29.96,SSE,158,2.3,2.3,34,0.00,OVC,,0.00,30.0,WeatherDisplay:10.37,2013-06-10 22:09:00,
2013-06-10 17:14:00,95.9,65.4,29.95,SE,135,3.5,3.5,37,0.00,OVC,,0.00,30.0,WeatherDisplay:10.37,2013-06-10 22:14:00,
2013-06-10 17:20:00,95.7,63.7,29.95,SSW,202,2.3,2.3,35,0.00,OVC,,0.00,30.0,WeatherDisplay:10.37,2013-06-10 22:20:00,
2013-06-10 17:25:00,95.5,62.7,29.95,SSE,158,3.5,3.5,34,0.00,OVC,,0.00,30.0,WeatherDisplay:10.37,2013-06-10 22:25:00,
2013-06-10 17:30:00,95.5,62.7,29.95,ESE,112,3.5,3.5,34,0.00,OVC,,0.00,30.0,WeatherDisplay:10.37,2013-06-10 22:30:00,
2013-06-10 17:35:00,95.7,62.0,29.95,South,180,3.5,3.5,33,0.00,OVC,,0.00,30.0,WeatherDisplay:10.37,2013-06-10 22:35:00,
2013-06-10 17:40:00,95.9,63.0,29.95,SE,135,5.8,5.8,34,0.00,OVC,,0.00,30.0,WeatherDisplay:10.37,2013-06-10 22:40:00,
2013-06-10 17:45:00,95.9,63.0,29.95,South,180,2.3,2.3,34,0.00,OVC,,0.00,20.0,WeatherDisplay:10.37,2013-06-10 22:45:00,
2013-06-10 17:51:00,95.7,62.0,29.95,South,180,3.5,3.5,33,0.00,OVC,,0.00,20.0,WeatherDisplay:10.37,2013-06-10 22:51:00,
2013-06-10 17:56:00,95.9,63.0,29.95,SSE,158,3.7,3.7,34,0.00,OVC,,0.00,20.0,WeatherDisplay:10.37,2013-06-10 22:56:00,
2013-06-10 18:01:00,95.9,63.0,29.95,SE,135,3.5,3.5,34,0.00,OVC,,0.00,20.0,WeatherDisplay:10.37,2013-06-10 23:01:00,
2013-06-10 18:07:00,95.9,63.0,29.95,West,270,3.6,3.6,34,0.00,OVC,,0.00,20.0,WeatherDisplay:10.37,2013-06-10 23:07:00,
2013-06-10 18:12:00,95.7,62.9,29.94,East,90,1.2,2.0,34,0.00,OVC,,0.00,20.0,WeatherDisplay:10.37,2013-06-10 23:12:00,
2013-06-10 18:17:00,95.9,63.0,29.94,SSE,158,6.9,6.9,34,0.00,OVC,,0.00,20.0,WeatherDisplay:10.37,2013-06-10 23:17:00,
2013-06-10 18:22:00,95.7,62.9,29.94,ESE,112,5.2,5.2,34,0.00,OVC,,0.00,20.0,WeatherDisplay:10.37,2013-06-10 23:22:00,
2013-06-10 18:27:00,95.9,63.0,29.94,South,180,0.0,4.0,34,0.00,OVC,,0.00,10.0,WeatherDisplay:10.37,2013-06-10 23:27:00,
2013-06-10 18:32:00,96.1,64.8,29.94,SSE,158,3.5,3.5,36,0.00,OVC,,0.00,10.0,WeatherDisplay:10.37,2013-06-10 23:32:00,
2013-06-10 18:38:00,96.3,65.0,29.94,SSE,158,6.9,6.9,36,0.00,OVC,,0.00,10.0,WeatherDisplay:10.37,2013-06-10 23:38:00,
2013-06-10 18:43:00,96.1,64.8,29.94,South,180,4.6,4.6,36,0.00,OVC,,0.00,10.0,WeatherDisplay:10.37,2013-06-10 23:43:00,
2013-06-10 18:48:00,96.3,64.2,29.94,SE,135,4.6,4.6,35,0.00,OVC,,0.00,10.0,WeatherDisplay:10.37,2013-06-10 23:48:00,
2013-06-10 18:53:00,96.3,64.2,29.95,SSE,158,4.6,4.6,35,0.00,OVC,,0.00,10.0,WeatherDisplay:10.37,2013-06-10 23:53:00,
2013-06-10 18:58:00,96.3,64.2,29.95,SSE,158,4.6,4.6,35,0.00,OVC,,0.00,0.0,WeatherDisplay:10.37,2013-06-10 23:58:00,
2013-06-10 19:03:00,96.3,63.3,29.95,SSE,158,6.9,6.9,34,0.00,OVC,,0.00,0.0,WeatherDisplay:10.37,2013-06-11 00:03:00,
2013-06-10 19:08:00,96.4,63.5,29.95,SSE,158,5.8,5.8,34,0.00,OVC,,0.00,10.0,WeatherDisplay:10.37,2013-06-11 00:08:00,
2013-06-10 19:13:00,96.4,62.6,29.94,SSE,158,3.5,3.5,33,0.00,OVC,,0.00,10.0,WeatherDisplay:10.37,2013-06-11 00:13:00,
2013-06-10 19:18:00,96.8,63.0,29.94,SSE,158,3.5,3.5,33,0.00,OVC,,0.00,10.0,WeatherDisplay:10.37,2013-06-11 00:18:00,
2013-06-10 19:24:00,96.8,63.8,29.94,South,180,4.6,4.6,34,0.00,OVC,,0.00,10.0,WeatherDisplay:10.37,2013-06-11 00:24:00,
2013-06-10 19:29:00,96.8,63.8,29.94,SSE,158,2.3,2.3,34,0.00,OVC,,0.00,20.0,WeatherDisplay:10.37,2013-06-11 00:29:00,
2013-06-10 19:34:00,96.6,63.6,29.95,SSE,158,4.6,4.6,34,0.00,OVC,,0.00,20.0,WeatherDisplay:10.37,2013-06-11 00:34:00,
2013-06-10 19:39:00,96.3,65.0,29.95,SSE,158,5.8,5.8,36,0.00,OVC,,0.00,30.0,WeatherDisplay:10.37,2013-06-11 00:39:00,
2013-06-10 19:44:00,95.9,65.4,29.95,South,180,4.6,4.6,37,0.00,OVC,,0.00,50.0,WeatherDisplay:10.37,2013-06-11 00:44:00,
2013-06-10 19:49:00,95.4,65.7,29.95,SSE,158,2.3,2.3,38,0.00,OVC,,0.00,60.0,WeatherDisplay:10.37,2013-06-11 00:49:00,
2013-06-10 19:55:00,95.2,65.6,29.95,South,180,2.3,2.3,38,0.00,OVC,,0.00,90.0,WeatherDisplay:10.37,2013-06-11 00:55:00,
2013-06-10 20:00:00,94.6,65.8,29.95,SE,135,3.5,3.5,39,0.00,OVC,,0.00,120.0,WeatherDisplay:10.37,2013-06-11 01:00:00,
2013-06-10 20:05:00,94.1,66.1,29.95,South,180,2.3,2.3,40,0.00,OVC,,0.00,140.0,WeatherDisplay:10.37,2013-06-11 01:05:00,
2013-06-10 20:10:00,93.7,66.5,29.95,SSE,158,2.5,2.5,41,0.00,OVC,,0.00,150.0,WeatherDisplay:10.37,2013-06-11 01:10:00,
2013-06-10 20:16:00,93.4,66.9,29.95,SW,225,1.2,1.2,42,0.00,OVC,,0.00,160.0,WeatherDisplay:10.37,2013-06-11 01:16:00,
2013-06-10 20:21:00,93.2,66.7,29.95,SE,135,2.3,2.3,42,0.00,OVC,,0.00,180.0,WeatherDisplay:10.37,2013-06-11 01:21:00,
2013-06-10 20:26:00,93.0,67.2,29.95,SSE,158,3.5,3.5,43,0.00,OVC,,0.00,200.0,WeatherDisplay:10.37,2013-06-11 01:26:00,
2013-06-10 20:31:00,92.7,66.9,29.95,SE,135,1.2,2.1,43,0.00,OVC,,0.00,220.0,WeatherDisplay:10.37,2013-06-11 01:31:00,
2013-06-10 20:36:00,92.3,66.6,29.95,SE,135,3.5,3.5,43,0.00,OVC,,0.00,230.0,WeatherDisplay:10.37,2013-06-11 01:36:00,
2013-06-10 20:41:00,91.9,66.2,29.95,SSE,158,2.3,2.3,43,0.00,OVC,,0.00,240.0,WeatherDisplay:10.37,2013-06-11 01:41:00,
2013-06-10 20:46:00,91.8,66.1,29.95,South,180,2.3,2.3,43,0.00,OVC,,0.00,240.0,WeatherDisplay:10.37,2013-06-11 01:46:00,
2013-06-10 20:52:00,91.4,65.8,29.94,SSE,158,3.5,3.5,43,0.00,OVC,,0.00,250.0,WeatherDisplay:10.37,2013-06-11 01:52:00,
2013-06-10 20:57:00,91.2,65.6,29.94,South,180,2.3,2.3,43,0.00,OVC,,0.00,260.0,WeatherDisplay:10.37,2013-06-11 01:57:00,
2013-06-10 21:02:00,91.0,66.1,29.94,SSE,158,2.3,2.3,44,0.00,CLR,,0.00,270.0,WeatherDisplay:10.37,2013-06-11 02:02:00,
2013-06-10 21:07:00,90.9,65.9,29.94,South,180,2.3,2.3,44,0.00,CLR,,0.00,280.0,WeatherDisplay:10.37,2013-06-11 02:07:00,
2013-06-10 21:12:00,90.5,65.6,29.94,SSE,158,2.3,2.3,44,0.00,CLR,,0.00,280.0,WeatherDisplay:10.37,2013-06-11 02:12:00,
2013-06-10 21:17:00,90.5,65.6,29.94,SE,135,4.9,4.9,44,0.00,CLR,,0.00,290.0,WeatherDisplay:10.37,2013-06-11 02:17:00,
2013-06-10 21:23:00,90.1,65.3,29.94,SSE,158,2.3,2.3,44,0.00,CLR,,0.00,0.0,WeatherDisplay:10.37,2013-06-11 02:23:00,
2013-06-10 21:28:00,90.1,65.9,29.94,North,0,3.5,3.5,45,0.00,CLR,,0.00,0.0,WeatherDisplay:10.37,2013-06-11 02:28:00,
2013-06-10 21:33:00,89.8,65.6,29.94,ESE,112,2.3,2.3,45,0.00,CLR,,0.00,310.0,WeatherDisplay:10.37,2013-06-11 02:33:00,
2013-06-10 21:38:00,89.6,66.1,29.94,SSE,158,3.5,3.5,46,0.00,CLR,,0.00,330.0,WeatherDisplay:10.37,2013-06-11 02:38:00,
2013-06-10 21:43:00,89.4,65.9,29.94,SSE,158,1.2,1.8,46,0.00,CLR,,0.00,320.0,WeatherDisplay:10.37,2013-06-11 02:43:00,
2013-06-10 21:48:00,89.2,65.8,29.94,ESE,112,3.5,3.5,46,0.00,CLR,,0.00,320.0,WeatherDisplay:10.37,2013-06-11 02:48:00,
2013-06-10 21:54:00,88.9,66.0,29.95,SE,135,3.5,3.5,47,0.00,CLR,,0.00,310.0,WeatherDisplay:10.37,2013-06-11 02:54:00,
2013-06-10 21:59:00,88.9,66.0,29.95,SE,135,2.3,2.3,47,0.00,CLR,,0.00,310.0,WeatherDisplay:10.37,2013-06-11 02:59:00,
2013-06-10 22:04:00,88.7,66.5,29.95,SSE,158,2.3,2.3,48,0.00,CLR,,0.00,310.0,WeatherDisplay:10.37,2013-06-11 03:04:00,
2013-06-10 22:09:00,88.5,66.3,29.95,SE,135,2.3,2.3,48,0.00,CLR,,0.00,320.0,WeatherDisplay:10.37,2013-06-11 03:09:00,
2013-06-10 22:15:00,88.3,66.2,29.95,SE,135,4.6,4.6,48,0.00,CLR,,0.00,300.0,WeatherDisplay:10.37,2013-06-11 03:15:00,
2013-06-10 22:20:00,88.2,66.6,29.95,ESE,112,2.3,2.6,49,0.00,CLR,,0.00,290.0,WeatherDisplay:10.37,2013-06-11 03:20:00,
2013-06-10 22:25:00,88.0,66.4,29.95,SE,135,4.6,4.6,49,0.00,CLR,,0.00,290.0,WeatherDisplay:10.37,2013-06-11 03:25:00,
2013-06-10 22:30:00,87.8,66.3,29.97,SE,135,4.6,4.6,49,0.00,CLR,,0.00,280.0,WeatherDisplay:10.37,2013-06-11 03:30:00,
2013-06-10 22:35:00,87.6,66.7,29.97,SE,135,4.6,4.6,50,0.00,CLR,,0.00,260.0,WeatherDisplay:10.37,2013-06-11 03:35:00,
2013-06-10 22:40:00,87.4,66.5,29.97,ENE,68,3.5,3.5,50,0.00,CLR,,0.00,270.0,WeatherDisplay:10.37,2013-06-11 03:40:00,
2013-06-10 22:46:00,87.3,66.4,29.97,ESE,112,6.3,6.3,50,0.00,CLR,,0.00,240.0,WeatherDisplay:10.37,2013-06-11 03:46:00,
2013-06-10 22:51:00,87.1,66.2,29.97,South,180,5.8,5.8,50,0.00,CLR,,0.00,0.0,WeatherDisplay:10.37,2013-06-11 03:51:00,
2013-06-10 22:56:00,86.9,66.6,29.97,SE,135,3.5,3.5,51,0.00,CLR,,0.00,280.0,WeatherDisplay:10.37,2013-06-11 03:56:00,
2013-06-10 23:01:00,86.9,66.6,29.97,SSE,158,3.5,3.5,51,0.00,CLR,,0.00,0.0,WeatherDisplay:10.37,2013-06-11 04:01:00,
2013-06-10 23:02:00,86.5,66.3,29.97,SSE,158,3.5,3.5,51,0.00,CLR,,0.00,300.0,WeatherDisplay:10.37,2013-06-11 04:02:00,
2013-06-10 23:03:00,86.5,66.3,29.97,SSE,158,2.3,2.3,51,0.00,CLR,,0.00,0.0,WeatherDisplay:10.37,2013-06-11 04:03:00,
2013-06-10 23:08:00,86.4,66.1,29.97,SE,135,2.3,2.3,51,0.00,CLR,,0.00,270.0,WeatherDisplay:10.37,2013-06-11 04:08:00,
2013-06-10 23:13:00,86.0,66.3,29.98,ESE,112,3.5,3.5,52,0.00,CLR,,0.00,240.0,WeatherDisplay:10.37,2013-06-11 04:13:00,
2013-06-10 23:18:00,85.8,66.2,29.98,ESE,112,3.5,3.5,52,0.00,CLR,,0.00,250.0,WeatherDisplay:10.37,2013-06-11 04:18:00,
2013-06-10 23:23:00,85.8,66.7,29.98,South,180,3.5,3.5,53,0.00,CLR,,0.00,230.0,WeatherDisplay:10.37,2013-06-11 04:23:00,
2013-06-10 23:29:00,85.5,66.4,29.98,South,180,2.6,2.6,53,0.00,CLR,,0.00,240.0,WeatherDisplay:10.37,2013-06-11 04:29:00,
2013-06-10 23:34:00,85.5,66.4,29.99,South,180,2.4,2.4,53,0.00,CLR,,0.00,220.0,WeatherDisplay:10.37,2013-06-11 04:34:00,
2013-06-10 23:39:00,85.1,66.6,29.99,SE,135,4.6,4.6,54,0.00,CLR,,0.00,230.0,WeatherDisplay:10.37,2013-06-11 04:39:00,
2013-06-10 23:45:00,85.1,66.6,29.99,SE,135,3.8,3.8,54,0.00,CLR,,0.00,0.0,WeatherDisplay:10.37,2013-06-11 04:45:00,
2013-06-10 23:50:00,84.7,66.8,29.99,ENE,68,4.6,4.6,55,0.00,CLR,,0.00,270.0,WeatherDisplay:10.37,2013-06-11 04:50:00,
2013-06-10 23:55:00,84.6,66.6,29.99,SSE,158,2.3,2.3,55,0.00,CLR,,0.00,260.0,WeatherDisplay:10.37,2013-06-11 04:55:00,